Time;durP1;ratioP1;P1;durP2;ratioP2;P2;SDS_P1;SDS_P2;PMS_P1;PMS_P2;Temp;Humidity;BMP_temperature;BMP_pressure;BME280_temperature;BME280_humidity;BME280_pressure;Samples;Min_cycle;Max_cycle;Signal;HPM_P1;HPM_P2
2022/02/25 00:00:00;;;;;;;1.17;0.95;;;2.10;99.90;;;;;;6179583;23;20009;-87
2022/02/25 00:02:25;;;;;;;1.83;1.17;;;2.10;99.90;;;;;;6207922;23;20429;-88
2022/02/25 00:04:51;;;;;;;1.65;1.55;;;2.00;99.90;;;;;;6182193;23;20341;-87
2022/02/25 00:07:17;;;;;;;4.70;1.40;;;2.10;99.90;;;;;;6181924;23;20349;-86
2022/02/25 00:09:42;;;;;;;3.58;1.38;;;2.10;99.90;;;;;;6181070;23;20566;-87
2022/02/25 00:12:08;;;;;;;1.25;0.80;;;2.10;99.90;;;;;;6182583;23;20008;-87
2022/02/25 00:14:33;;;;;;;2.67;0.93;;;2.10;99.90;;;;;;6179178;23;20024;-87
2022/02/25 00:16:59;;;;;;;2.67;0.93;;;2.10;99.90;;;;;;6181338;23;20008;-87
2022/02/25 00:19:24;;;;;;;0.80;0.77;;;2.10;99.90;;;;;;6182680;23;20008;-87
2022/02/25 00:21:51;;;;;;;1.55;1.05;;;1.90;99.90;;;;;;6178011;23;20012;-87
2022/02/25 00:24:16;;;;;;;1.88;1.00;;;1.90;99.90;;;;;;6180113;23;20009;-86
2022/02/25 00:26:42;;;;;;;2.17;1.23;;;1.90;99.90;;;;;;6179647;23;20005;-87
2022/02/25 00:29:08;;;;;;;7.72;1.50;;;2.00;99.90;;;;;;6203062;23;20009;-86
2022/02/25 00:31:33;;;;;;;1.45;1.08;;;2.20;99.90;;;;;;6179991;23;20024;-86
2022/02/25 00:33:59;;;;;;;2.25;0.77;;;2.10;99.90;;;;;;6180263;23;20024;-86
2022/02/25 00:36:24;;;;;;;3.63;1.23;;;2.20;99.90;;;;;;6180418;23;20820;-86
2022/02/25 00:38:50;;;;;;;1.63;0.60;;;2.20;99.90;;;;;;6206685;23;20043;-86
2022/02/25 00:41:16;;;;;;;2.97;0.82;;;2.20;99.90;;;;;;6181907;23;20095;-86
2022/02/25 00:43:41;;;;;;;3.67;1.65;;;2.20;99.90;;;;;;6179634;23;20005;-86
2022/02/25 00:46:07;;;;;;;5.65;1.58;;;2.10;99.90;;;;;;6181811;23;20011;-86
2022/02/25 00:48:33;;;;;;;2.38;1.40;;;2.20;99.90;;;;;;6207963;23;20017;-87
2022/02/25 00:50:58;;;;;;;3.70;1.00;;;2.10;99.90;;;;;;6181839;23;20043;-85
2022/02/25 00:53:24;;;;;;;5.63;1.58;;;2.10;99.90;;;;;;6183559;23;20004;-85
2022/02/25 00:55:49;;;;;;;2.88;1.23;;;2.10;99.90;;;;;;6181840;23;20012;-86
2022/02/25 00:58:15;;;;;;;3.65;1.52;;;2.10;99.90;;;;;;6183640;23;20039;-86
2022/02/25 01:00:40;;;;;;;3.63;1.63;;;2.20;99.90;;;;;;6182386;23;20023;-85
2022/02/25 01:03:06;;;;;;;2.35;1.00;;;2.00;99.90;;;;;;6183852;23;20019;-86
2022/02/25 01:05:32;;;;;;;6.10;1.88;;;2.10;99.90;;;;;;6183130;23;20114;-86
2022/02/25 01:07:58;;;;;;;1.17;0.98;;;2.10;99.90;;;;;;6207847;23;20047;-85
2022/02/25 01:10:24;;;;;;;6.80;2.40;;;2.00;99.90;;;;;;6182924;23;20029;-85
2022/02/25 01:12:49;;;;;;;1.73;1.50;;;2.00;99.90;;;;;;6183386;23;20009;-85
2022/02/25 01:15:15;;;;;;;5.72;2.33;;;2.10;99.90;;;;;;6183837;23;20013;-86
2022/02/25 01:17:41;;;;;;;5.50;1.48;;;2.20;99.90;;;;;;6183301;23;20070;-85
2022/02/25 01:20:07;;;;;;;2.88;1.42;;;2.10;99.90;;;;;;6183715;23;20079;-85
2022/02/25 01:22:33;;;;;;;2.45;1.42;;;2.10;99.90;;;;;;6208241;23;20024;-85
2022/02/25 01:24:59;;;;;;;5.18;1.92;;;2.10;99.90;;;;;;6180597;23;20360;-85
2022/02/25 01:27:25;;;;;;;3.42;1.17;;;2.10;99.90;;;;;;6207277;23;20000;-86
2022/02/25 01:29:51;;;;;;;7.50;1.73;;;2.20;99.90;;;;;;6180971;23;20016;-85
2022/02/25 01:32:16;;;;;;;9.35;2.20;;;2.10;99.90;;;;;;6181687;23;20066;-86
2022/02/25 01:34:42;;;;;;;2.45;1.23;;;2.00;99.90;;;;;;6182500;23;20016;-86
2022/02/25 01:37:08;;;;;;;4.43;1.67;;;2.00;99.90;;;;;;6181453;23;20005;-86
2022/02/25 01:39:34;;;;;;;1.65;0.80;;;2.00;99.90;;;;;;6205164;23;20005;-86
2022/02/25 01:42:02;;;;;;;7.45;1.02;;;2.00;99.90;;;;;;6206539;23;20075;-86
2022/02/25 01:44:29;;;;;;;2.85;1.33;;;2.00;99.90;;;;;;6182795;23;20012;-86
2022/02/25 01:46:57;;;;;;;3.63;1.33;;;2.10;99.90;;;;;;6182509;23;20620;-86
2022/02/25 01:49:23;;;;;;;3.83;1.75;;;2.00;99.90;;;;;;6180036;23;20178;-86
2022/02/25 01:51:51;;;;;;;2.25;0.90;;;2.00;99.90;;;;;;6180815;23;20017;-86
2022/02/25 01:54:17;;;;;;;5.22;1.08;;;2.00;99.90;;;;;;6180722;23;20454;-85
2022/02/25 01:56:43;;;;;;;4.78;1.52;;;1.90;99.90;;;;;;6182786;23;20024;-86
2022/02/25 01:59:10;;;;;;;7.10;1.08;;;1.90;99.90;;;;;;6182588;23;20039;-86
2022/02/25 02:01:36;;;;;;;2.45;0.90;;;1.90;99.90;;;;;;6176234;23;20015;-86
2022/02/25 02:04:02;;;;;;;2.47;1.38;;;1.80;99.90;;;;;;6183351;23;20013;-85
2022/02/25 02:06:28;;;;;;;4.85;1.38;;;1.90;99.90;;;;;;6182688;23;20011;-85
2022/02/25 02:08:53;;;;;;;4.07;1.48;;;2.00;99.90;;;;;;6180987;23;20047;-85
2022/02/25 02:11:30;;;;;;;3.72;1.75;;;2.00;99.90;;;;;;6182002;23;20040;-86
2022/02/25 02:13:56;;;;;;;9.05;1.83;;;1.90;99.90;;;;;;6182307;23;20442;-84
2022/02/25 02:16:22;;;;;;;5.63;1.70;;;1.90;99.90;;;;;;6182501;23;20446;-84
2022/02/25 02:18:49;;;;;;;5.70;1.77;;;2.00;99.90;;;;;;6182069;23;20499;-84
2022/02/25 02:21:14;;;;;;;1.80;1.00;;;1.90;99.90;;;;;;6207443;23;20496;-86
2022/02/25 02:23:40;;;;;;;7.32;1.60;;;1.80;99.90;;;;;;6182034;23;20016;-85
2022/02/25 02:26:05;;;;;;;2.10;1.20;;;2.00;99.90;;;;;;6182432;23;20032;-85
2022/02/25 02:28:31;;;;;;;3.92;1.70;;;1.90;99.90;;;;;;6183587;23;20036;-85
2022/02/25 02:30:56;;;;;;;3.78;1.38;;;1.90;99.90;;;;;;6180228;23;20012;-85
2022/02/25 02:33:22;;;;;;;1.77;0.80;;;1.90;99.90;;;;;;6181729;23;20019;-85
2022/02/25 02:35:49;;;;;;;4.35;1.23;;;1.90;99.90;;;;;;6182148;23;20017;-86
2022/02/25 02:38:14;;;;;;;4.15;0.65;;;2.00;99.90;;;;;;6182918;23;20047;-86
2022/02/25 02:40:40;;;;;;;5.63;1.17;;;2.00;99.90;;;;;;6181728;23;20517;-85
2022/02/25 02:43:07;;;;;;;1.30;0.85;;;1.90;99.90;;;;;;6183016;23;20021;-85
2022/02/25 02:45:32;;;;;;;3.58;1.70;;;2.00;99.90;;;;;;6183570;23;20020;-85
2022/02/25 02:47:58;;;;;;;4.07;0.65;;;1.90;99.90;;;;;;6181564;23;20147;-85
2022/02/25 02:50:24;;;;;;;10.57;2.38;;;2.00;99.90;;;;;;6180744;23;20348;-85
2022/02/25 02:52:49;;;;;;;3.83;1.58;;;1.90;99.90;;;;;;6178412;23;20013;-86
2022/02/25 02:55:15;;;;;;;3.53;1.10;;;1.90;99.90;;;;;;6182405;23;20015;-85
2022/02/25 02:57:40;;;;;;;4.10;1.10;;;1.90;99.90;;;;;;6181530;23;20393;-85
2022/02/25 03:00:07;;;;;;;4.15;1.38;;;1.90;99.90;;;;;;6181538;23;20424;-85
2022/02/25 03:02:32;;;;;;;5.70;1.23;;;1.90;99.90;;;;;;6182706;23;20011;-85
2022/02/25 03:04:58;;;;;;;4.50;1.08;;;1.90;99.90;;;;;;6182241;23;20087;-84
2022/02/25 03:07:24;;;;;;;3.45;1.63;;;1.90;99.90;;;;;;6178385;23;20499;-84
2022/02/25 03:09:49;;;;;;;5.63;1.17;;;1.90;99.90;;;;;;6181018;23;20047;-85
2022/02/25 03:12:15;;;;;;;4.47;1.33;;;1.90;99.90;;;;;;6178769;23;20024;-84
2022/02/25 03:14:40;;;;;;;8.55;1.75;;;1.90;99.90;;;;;;6179466;23;20023;-83
2022/02/25 03:17:06;;;;;;;3.72;1.17;;;1.90;99.90;;;;;;6181458;23;20011;-83
2022/02/25 03:19:35;;;;;;;3.33;0.88;;;1.90;99.90;;;;;;6182370;23;20016;-84
2022/02/25 03:22:00;;;;;;;2.17;1.13;;;1.90;99.90;;;;;;6181635;23;20004;-84
2022/02/25 03:24:26;;;;;;;3.50;1.13;;;1.90;99.90;;;;;;6181273;23;20084;-84
2022/02/25 03:26:51;;;;;;;3.88;1.52;;;1.90;99.90;;;;;;6181295;23;20009;-85
2022/02/25 03:29:17;;;;;;;5.15;1.23;;;1.90;99.90;;;;;;6206582;23;20333;-84
2022/02/25 03:31:42;;;;;;;4.78;2.08;;;1.90;99.90;;;;;;6205578;23;20009;-84
2022/02/25 03:34:08;;;;;;;4.22;1.02;;;1.80;99.90;;;;;;6177946;23;20017;-85
2022/02/25 03:36:33;;;;;;;4.15;1.05;;;1.80;99.90;;;;;;6181863;23;20027;-85
2022/02/25 03:38:59;;;;;;;4.03;0.90;;;1.70;99.90;;;;;;6182417;23;20096;-85
2022/02/25 03:41:24;;;;;;;6.47;0.75;;;1.80;99.90;;;;;;6207527;23;20107;-85
2022/02/25 03:43:52;;;;;;;6.53;1.60;;;1.70;99.90;;;;;;6181475;23;20012;-85
2022/02/25 03:46:23;;;;;;;11.60;1.73;;;1.80;99.90;;;;;;6207265;23;20009;-84
2022/02/25 03:48:50;;;;;;;2.38;1.20;;;1.70;99.90;;;;;;6180301;23;20013;-85
2022/02/25 03:51:16;;;;;;;6.97;0.73;;;1.80;99.90;;;;;;6181778;23;20023;-85
2022/02/25 03:53:42;;;;;;;6.00;1.20;;;1.70;99.90;;;;;;6181372;23;20100;-85
2022/02/25 03:56:07;;;;;;;4.72;1.88;;;1.80;99.90;;;;;;6180164;23;20043;-84
2022/02/25 03:58:33;;;;;;;2.95;0.82;;;1.70;99.90;;;;;;6182403;23;20008;-85
2022/02/25 04:00:58;;;;;;;1.17;0.38;;;1.80;99.90;;;;;;6181096;23;20016;-86
2022/02/25 04:03:24;;;;;;;7.10;1.65;;;1.80;99.90;;;;;;6181729;23;20048;-85
2022/02/25 04:05:50;;;;;;;8.15;1.30;;;1.90;99.90;;;;;;6181926;23;20043;-85
2022/02/25 04:08:16;;;;;;;7.03;1.67;;;1.70;99.90;;;;;;6181872;23;20009;-85
2022/02/25 04:10:41;;;;;;;11.88;1.50;;;1.80;99.90;;;;;;6204384;23;20637;-85
2022/02/25 04:13:07;;;;;;;3.45;0.63;;;1.80;99.90;;;;;;6206679;23;20047;-84
2022/02/25 04:15:33;;;;;;;2.40;0.63;;;1.80;99.90;;;;;;6182323;23;20051;-85
2022/02/25 04:17:59;;;;;;;0.82;0.77;;;1.80;99.90;;;;;;6181389;23;20520;-86
2022/02/25 04:20:25;;;;;;;0.70;0.45;;;1.80;99.90;;;;;;6180529;23;20009;-85
2022/02/25 04:22:50;;;;;;;2.80;1.80;;;1.80;99.90;;;;;;6182613;23;20016;-86
2022/02/25 04:25:16;;;;;;;4.18;1.00;;;1.80;99.90;;;;;;6182189;23;20060;-86
2022/02/25 04:27:42;;;;;;;3.58;1.02;;;1.70;99.90;;;;;;6202684;23;20017;-85
2022/02/25 04:30:07;;;;;;;1.75;0.55;;;1.70;99.90;;;;;;6180558;23;20043;-84
2022/02/25 04:32:33;;;;;;;3.17;0.82;;;1.80;99.90;;;;;;6182071;23;20386;-85
2022/02/25 04:34:58;;;;;;;5.30;1.45;;;1.80;99.90;;;;;;6181693;23;20092;-84
2022/02/25 04:37:24;;;;;;;1.65;0.75;;;1.70;99.90;;;;;;6206507;23;20028;-86
2022/02/25 04:39:49;;;;;;;5.05;1.30;;;1.80;99.90;;;;;;6206871;23;20024;-85
2022/02/25 04:42:15;;;;;;;1.13;0.70;;;1.80;99.90;;;;;;6179081;23;20005;-85
2022/02/25 04:44:41;;;;;;;6.38;1.25;;;1.80;99.90;;;;;;6181470;23;20009;-85
2022/02/25 04:47:07;;;;;;;2.70;0.75;;;1.80;99.90;;;;;;6182024;23;20001;-86
2022/02/25 04:49:32;;;;;;;6.88;0.95;;;1.80;99.90;;;;;;6178190;23;20012;-85
2022/02/25 04:51:58;;;;;;;6.60;2.50;;;1.80;99.90;;;;;;6206357;23;20013;-84
2022/02/25 04:54:24;;;;;;;4.85;1.50;;;1.80;99.90;;;;;;6181653;23;20011;-85
2022/02/25 04:56:49;;;;;;;7.30;1.77;;;1.70;99.90;;;;;;6180015;23;20033;-85
2022/02/25 04:59:15;;;;;;;3.05;0.60;;;1.70;99.90;;;;;;6179138;23;20008;-85
2022/02/25 05:01:40;;;;;;;3.97;1.50;;;1.70;99.90;;;;;;6178832;23;20001;-85
2022/02/25 05:04:06;;;;;;;6.40;1.02;;;1.70;99.90;;;;;;6180916;23;20384;-86
2022/02/25 05:06:32;;;;;;;4.13;1.23;;;1.70;99.90;;;;;;6180655;23;20093;-85
2022/02/25 05:08:57;;;;;;;4.28;1.42;;;1.60;99.90;;;;;;6179242;23;20017;-86
2022/02/25 05:11:23;;;;;;;12.90;1.83;;;1.60;99.90;;;;;;6179511;23;20043;-85
2022/02/25 05:13:49;;;;;;;4.25;1.27;;;1.70;99.90;;;;;;6180441;23;20008;-84
2022/02/25 05:21:43;;;;;;;2.47;1.20;;;1.70;99.90;;;;;;6205735;23;20035;-85
2022/02/25 05:24:08;;;;;;;2.47;1.45;;;1.70;99.90;;;;;;6182262;23;20013;-86
2022/02/25 05:26:34;;;;;;;1.27;0.75;;;1.70;99.90;;;;;;6182788;23;20024;-85
2022/02/25 05:28:59;;;;;;;1.98;0.90;;;1.70;99.90;;;;;;6182275;23;20012;-86
2022/02/25 05:31:25;;;;;;;1.08;0.82;;;1.70;99.90;;;;;;6179855;23;20353;-85
2022/02/25 05:33:51;;;;;;;4.55;1.90;;;1.60;99.90;;;;;;6183152;23;20031;-86
2022/02/25 05:36:17;;;;;;;4.97;1.33;;;1.50;99.90;;;;;;6183025;23;20092;-85
2022/02/25 05:38:42;;;;;;;4.72;1.58;;;1.60;99.90;;;;;;6206285;23;20040;-86
2022/02/25 05:41:08;;;;;;;3.63;1.10;;;1.70;99.90;;;;;;6182951;23;20012;-85
2022/02/25 05:43:33;;;;;;;12.05;0.95;;;1.70;99.90;;;;;;6207096;23;20057;-85
2022/02/25 05:45:59;;;;;;;2.72;0.60;;;1.70;99.90;;;;;;6182537;23;20066;-85
2022/02/25 05:48:24;;;;;;;6.55;0.90;;;1.70;99.90;;;;;;6182517;23;20008;-85
2022/02/25 05:50:50;;;;;;;7.03;1.33;;;1.70;99.90;;;;;;6181315;23;20070;-85
2022/02/25 05:53:17;;;;;;;8.40;1.52;;;1.70;99.90;;;;;;6182860;23;20393;-85
2022/02/25 05:55:43;;;;;;;12.65;1.17;;;1.70;99.90;;;;;;6182540;23;20551;-86
2022/02/25 05:58:08;;;;;;;6.80;1.00;;;1.70;99.90;;;;;;6182756;23;20075;-86
2022/02/25 06:00:34;;;;;;;7.30;1.42;;;1.70;99.90;;;;;;6180572;23;20723;-87
2022/02/25 06:03:00;;;;;;;3.05;0.50;;;1.70;99.90;;;;;;6182043;23;20088;-87
2022/02/25 06:05:25;;;;;;;7.00;1.38;;;1.70;99.90;;;;;;6179927;23;20406;-88
2022/02/25 06:07:51;;;;;;;9.82;2.17;;;1.80;99.90;;;;;;6180669;23;20464;-87
2022/02/25 06:10:17;;;;;;;8.20;1.88;;;1.70;99.90;;;;;;6180701;23;20354;-87
2022/02/25 06:12:42;;;;;;;4.28;1.95;;;1.70;99.90;;;;;;6180891;23;20056;-86
2022/02/25 06:15:09;;;;;;;2.72;0.65;;;1.70;99.90;;;;;;6206596;23;20027;-87
2022/02/25 06:17:42;;;;;;;5.18;0.90;;;1.80;99.90;;;;;;6180036;23;20043;-87
2022/02/25 06:20:08;;;;;;;1.90;1.00;;;1.70;99.90;;;;;;6181744;23;20013;-86
2022/02/25 06:22:34;;;;;;;11.75;1.42;;;1.70;99.90;;;;;;6181318;23;20374;-86
2022/02/25 06:24:59;;;;;;;2.65;0.45;;;1.70;99.90;;;;;;6181147;23;20092;-86
2022/02/25 06:27:25;;;;;;;6.60;1.38;;;1.70;99.90;;;;;;6179972;23;20047;-86
2022/02/25 06:29:50;;;;;;;6.40;1.38;;;1.70;99.90;;;;;;6180322;23;20033;-85
2022/02/25 06:32:16;;;;;;;3.05;1.50;;;1.70;99.90;;;;;;6181086;23;20005;-87
2022/02/25 06:34:41;;;;;;;3.13;0.70;;;1.70;99.90;;;;;;6180969;23;20468;-86
2022/02/25 06:37:07;;;;;;;3.92;1.30;;;1.70;99.90;;;;;;6180034;23;20080;-87
2022/02/25 06:39:33;;;;;;;3.08;0.80;;;1.70;99.90;;;;;;6180998;23;20600;-86
2022/02/25 06:41:58;;;;;;;5.35;1.88;;;1.70;99.90;;;;;;6177697;23;20008;-86
2022/02/25 06:44:24;;;;;;;13.65;2.10;;;1.70;99.90;;;;;;6168329;23;20343;-86
2022/02/25 06:46:50;;;;;;;1.52;0.93;;;1.70;99.90;;;;;;6182490;23;20438;-86
2022/02/25 06:49:16;;;;;;;10.73;2.05;;;1.70;99.90;;;;;;6207983;23;20456;-85
2022/02/25 06:51:41;;;;;;;8.77;1.65;;;1.70;99.90;;;;;;6183530;23;20024;-85
2022/02/25 06:54:07;;;;;;;10.95;2.45;;;1.80;99.90;;;;;;6182098;23;20012;-86
2022/02/25 06:56:33;;;;;;;13.70;2.35;;;1.90;99.90;;;;;;6182053;23;24474;-86
2022/02/25 06:58:58;;;;;;;18.75;1.83;;;1.90;99.90;;;;;;6182367;23;20016;-86
2022/02/25 07:01:24;;;;;;;5.65;1.42;;;1.90;99.90;;;;;;6180125;23;20095;-85
2022/02/25 07:03:49;;;;;;;5.97;0.68;;;1.90;99.90;;;;;;6181261;23;20043;-85
2022/02/25 07:06:15;;;;;;;7.38;1.10;;;1.90;99.90;;;;;;6206979;23;20009;-86
2022/02/25 07:08:40;;;;;;;10.55;1.88;;;1.90;99.90;;;;;;6182697;23;20021;-85
2022/02/25 07:11:06;;;;;;;6.57;1.20;;;1.90;99.90;;;;;;6181978;23;20020;-86
2022/02/25 07:13:31;;;;;;;3.33;1.13;;;2.00;99.90;;;;;;6180771;23;20012;-85
2022/02/25 07:15:58;;;;;;;4.75;1.23;;;2.00;99.90;;;;;;6180795;23;20020;-86
2022/02/25 07:18:24;;;;;;;5.05;0.85;;;2.00;99.90;;;;;;6182879;23;20044;-85
2022/02/25 07:20:49;;;;;;;2.88;0.95;;;2.10;99.90;;;;;;6179108;23;20012;-86
2022/02/25 07:23:16;;;;;;;1.75;1.30;;;2.10;99.90;;;;;;6181786;23;20087;-85
2022/02/25 07:25:42;;;;;;;6.75;1.42;;;2.10;99.90;;;;;;6180748;23;20019;-85
2022/02/25 07:28:07;;;;;;;2.60;0.73;;;2.20;99.90;;;;;;6180079;23;20088;-86
2022/02/25 07:30:33;;;;;;;6.45;0.85;;;2.20;99.90;;;;;;6181526;23;20016;-85
2022/02/25 07:32:59;;;;;;;8.30;1.63;;;2.30;99.90;;;;;;6182690;23;20016;-85
2022/02/25 07:35:25;;;;;;;6.20;1.13;;;2.40;99.90;;;;;;6182025;23;20009;-85
2022/02/25 07:37:50;;;;;;;7.45;1.50;;;2.50;99.90;;;;;;6206888;23;20454;-85
2022/02/25 07:40:16;;;;;;;3.53;1.08;;;2.50;99.90;;;;;;6207001;23;20516;-85
2022/02/25 07:42:41;;;;;;;1.83;0.80;;;2.70;99.90;;;;;;6182087;23;20012;-85
2022/02/25 07:45:08;;;;;;;7.25;1.42;;;2.70;99.90;;;;;;6181511;23;20032;-86
2022/02/25 07:47:33;;;;;;;7.50;1.23;;;2.80;99.90;;;;;;6181422;23;20694;-85
2022/02/25 07:49:59;;;;;;;6.75;1.10;;;2.90;99.90;;;;;;6180095;23;20027;-85
2022/02/25 07:52:24;;;;;;;9.32;1.30;;;2.80;99.90;;;;;;6181472;23;20705;-86
2022/02/25 07:54:50;;;;;;;4.05;1.17;;;2.80;99.90;;;;;;6180498;23;20392;-87
2022/02/25 07:57:18;;;;;;;3.97;1.05;;;2.70;99.90;;;;;;6180134;23;20001;-83
2022/02/25 07:59:45;;;;;;;9.23;1.70;;;2.70;99.90;;;;;;6181901;23;20004;-87
2022/02/25 08:02:10;;;;;;;3.78;1.10;;;2.70;99.90;;;;;;6181433;23;20067;-87
2022/02/25 08:04:36;;;;;;;7.35;1.10;;;2.60;99.90;;;;;;6179448;23;20441;-87
2022/02/25 08:07:02;;;;;;;15.98;1.83;;;2.60;99.90;;;;;;6182232;23;20163;-88
2022/02/25 08:09:27;;;;;;;5.45;1.35;;;2.50;99.90;;;;;;6183227;23;20013;-89
2022/02/25 08:11:53;;;;;;;5.82;1.70;;;2.50;99.90;;;;;;6182464;23;20024;-88
2022/02/25 08:14:18;;;;;;;4.32;1.67;;;2.50;99.90;;;;;;6182289;23;20070;-87
2022/02/25 08:16:44;;;;;;;11.00;1.33;;;2.50;99.90;;;;;;6183795;23;20020;-88
2022/02/25 08:19:10;;;;;;;4.50;0.52;;;2.60;99.90;;;;;;6180848;23;20012;-86
2022/02/25 08:21:35;;;;;;;3.65;0.82;;;2.60;99.90;;;;;;6206970;23;20083;-87
2022/02/25 08:24:01;;;;;;;6.93;1.75;;;2.60;99.90;;;;;;6182107;23;20008;-87
2022/02/25 08:26:27;;;;;;;9.40;2.25;;;2.60;99.90;;;;;;6180148;23;20009;-88
2022/02/25 08:28:53;;;;;;;8.02;0.98;;;2.60;99.90;;;;;;6183629;23;20036;-88
2022/02/25 08:31:19;;;;;;;2.90;1.63;;;2.60;99.90;;;;;;6181849;23;20017;-88
2022/02/25 08:33:44;;;;;;;5.38;1.80;;;2.70;99.90;;;;;;6182195;23;20020;-87
2022/02/25 08:36:10;;;;;;;9.55;2.17;;;2.70;99.90;;;;;;6181923;23;20009;-88
2022/02/25 08:38:36;;;;;;;5.88;1.23;;;2.70;99.90;;;;;;6181868;23;21453;-88
2022/02/25 08:41:03;;;;;;;4.75;1.17;;;2.60;99.90;;;;;;6178341;23;20443;-88
2022/02/25 08:43:29;;;;;;;4.00;1.05;;;2.60;99.90;;;;;;6206151;23;20012;-88
2022/02/25 08:45:55;;;;;;;2.63;0.85;;;2.60;99.90;;;;;;6182970;23;20016;-89
2022/02/25 08:48:20;;;;;;;12.25;1.63;;;2.70;99.90;;;;;;6205335;23;20434;-88
2022/02/25 08:50:46;;;;;;;6.95;1.80;;;2.70;99.90;;;;;;6181812;23;20437;-88
2022/02/25 08:53:11;;;;;;;9.27;1.20;;;2.70;99.90;;;;;;6182282;23;20522;-87
2022/02/25 08:55:37;;;;;;;13.38;1.92;;;2.80;99.90;;;;;;6208639;23;20428;-88
2022/02/25 08:58:02;;;;;;;4.65;1.20;;;2.70;99.90;;;;;;6182188;23;20040;-88
2022/02/25 09:00:28;;;;;;;6.95;1.30;;;2.80;99.90;;;;;;6182936;23;20012;-87
2022/02/25 09:02:54;;;;;;;12.70;2.63;;;2.80;99.90;;;;;;6206390;23;20009;-88
2022/02/25 09:05:21;;;;;;;8.38;1.08;;;2.80;99.90;;;;;;6181563;23;20454;-87
2022/02/25 09:07:47;;;;;;;19.05;2.10;;;2.80;99.90;;;;;;6183271;23;20012;-88
2022/02/25 09:10:13;;;;;;;8.95;1.15;;;2.80;99.90;;;;;;6157054;23;20091;-87
2022/02/25 09:12:39;;;;;;;2.95;1.52;;;2.80;99.90;;;;;;6183025;23;20468;-88
2022/02/25 09:15:06;;;;;;;16.90;2.38;;;2.80;99.90;;;;;;6181711;23;20012;-88
2022/02/25 09:17:32;;;;;;;8.38;1.88;;;2.80;99.90;;;;;;6179894;23;20017;-90
2022/02/25 09:19:58;;;;;;;9.15;1.92;;;2.90;99.90;;;;;;6181533;23;20364;-89
2022/02/25 09:22:23;;;;;;;10.07;2.30;;;3.00;99.90;;;;;;6183081;23;20008;-88
2022/02/25 09:24:49;;;;;;;7.30;1.63;;;3.00;99.90;;;;;;6208285;23;20032;-88
2022/02/25 09:27:14;;;;;;;8.65;2.28;;;3.10;99.90;;;;;;6183513;23;20000;-88
2022/02/25 09:29:40;;;;;;;10.90;1.60;;;3.20;99.90;;;;;;6182190;23;20009;-86
2022/02/25 09:32:07;;;;;;;8.05;1.55;;;3.30;99.90;;;;;;6181514;23;20064;-88
2022/02/25 09:34:33;;;;;;;10.88;1.50;;;3.50;99.90;;;;;;6207461;23;20095;-88
2022/02/25 09:36:58;;;;;;;7.40;1.45;;;3.60;99.90;;;;;;6210607;23;20067;-89
2022/02/25 09:39:24;;;;;;;19.45;3.90;;;3.70;99.90;;;;;;6183865;23;20004;-88
2022/02/25 09:41:49;;;;;;;10.80;2.17;;;3.80;99.90;;;;;;6171767;23;20006;-88
2022/02/25 09:44:15;;;;;;;13.27;2.95;;;3.90;99.90;;;;;;6162172;23;20078;-88
2022/02/25 09:46:43;;;;;;;10.77;2.22;;;4.00;99.90;;;;;;6184497;23;20001;-87
2022/02/25 09:49:09;;;;;;;12.38;2.63;;;4.10;99.90;;;;;;6184495;23;20009;-86
2022/02/25 09:51:36;;;;;;;5.50;1.88;;;4.30;99.90;;;;;;6183547;23;20051;-86
2022/02/25 09:54:02;;;;;;;11.40;1.98;;;4.40;99.90;;;;;;6181995;23;20384;-86
2022/02/25 09:56:29;;;;;;;12.25;2.15;;;4.60;99.90;;;;;;6183524;23;20025;-86
2022/02/25 09:58:57;;;;;;;8.98;2.67;;;4.70;99.90;;;;;;6183416;23;20032;-87
2022/02/25 10:01:29;;;;;;;7.07;2.33;;;4.80;99.90;;;;;;6180154;23;20016;-87
2022/02/25 10:03:54;;;;;;;9.10;2.33;;;4.90;99.90;;;;;;6182305;23;20515;-86
2022/02/25 10:06:20;;;;;;;12.10;2.53;;;4.90;99.90;;;;;;6184252;23;20004;-86
2022/02/25 10:08:45;;;;;;;7.28;2.15;;;5.10;99.90;;;;;;6183308;23;20009;-86
2022/02/25 10:11:11;;;;;;;11.23;2.38;;;5.10;99.90;;;;;;6182122;23;20677;-86
2022/02/25 10:13:36;;;;;;;12.55;2.70;;;5.20;99.90;;;;;;6183123;23;20020;-85
2022/02/25 10:16:03;;;;;;;4.95;2.08;;;5.20;99.90;;;;;;6180738;23;20031;-86
2022/02/25 10:18:31;;;;;;;13.82;2.42;;;5.30;99.90;;;;;;6208579;23;20052;-87
2022/02/25 10:21:13;;;;;;;4.70;2.35;;;5.30;99.90;;;;;;6182956;23;20456;-87
2022/02/25 10:23:43;;;;;;;15.73;3.28;;;5.30;99.90;;;;;;6181929;23;20079;-86
2022/02/25 10:26:11;;;;;;;4.15;1.58;;;5.50;99.90;;;;;;6183769;23;20012;-86
2022/02/25 10:28:39;;;;;;;13.75;4.07;;;5.50;99.90;;;;;;6208056;23;20036;-86
2022/02/25 10:31:20;;;;;;;9.88;2.75;;;5.60;99.90;;;;;;6175899;23;20028;-86
2022/02/25 10:34:12;;;;;;;5.65;2.15;;;5.50;99.90;;;;;;6208969;23;20028;-86
2022/02/25 10:36:47;;;;;;;7.78;1.98;;;5.50;99.90;;;;;;6160950;23;20092;-86
2022/02/25 10:39:21;;;;;;;15.27;4.65;;;5.60;99.90;;;;;;6209789;23;20441;-86
2022/02/25 10:42:05;;;;;;;9.30;3.25;;;5.70;99.90;;;;;;6120025;23;20091;-87
2022/02/25 10:44:41;;;;;;;9.43;2.33;;;5.70;99.90;;;;;;6159859;23;20341;-86
2022/02/25 10:47:34;;;;;;;;;;;5.80;99.90;;;;;;6181069;23;20012;-86
2022/02/25 10:50:05;;;;;;;11.45;2.10;;;5.90;99.90;;;;;;6203594;23;19912;-86
2022/02/25 10:52:35;;;;;;;6.38;2.63;;;6.00;99.90;;;;;;6183379;23;20020;-86
2022/02/25 10:55:03;;;;;;;14.02;3.88;;;6.10;99.90;;;;;;6184009;23;20012;-87
2022/02/25 10:57:29;;;;;;;9.30;2.70;;;6.40;99.90;;;;;;6179330;23;20008;-85
2022/02/25 10:59:56;;;;;;;5.30;1.92;;;6.50;99.90;;;;;;6170948;23;20031;-86
2022/02/25 11:02:35;;;;;;;5.00;2.67;;;6.50;99.90;;;;;;6156012;23;20197;-87
2022/02/25 11:05:06;;;;;;;20.42;3.30;;;6.70;99.90;;;;;;6181082;23;20334;-86
2022/02/25 11:07:33;;;;;;;21.77;2.70;;;7.00;99.90;;;;;;6178894;23;20004;-86
2022/02/25 11:09:58;;;;;;;17.80;3.88;;;7.20;99.90;;;;;;6180301;23;20423;-87
2022/02/25 11:12:25;;;;;;;13.05;3.95;;;7.10;99.90;;;;;;6180119;23;20024;-86
2022/02/25 11:14:52;;;;;;;16.38;4.68;;;7.10;99.90;;;;;;6179747;23;20016;-84
2022/02/25 11:17:17;;;;;;;8.13;3.03;;;7.20;99.90;;;;;;6182520;23;20015;-88
2022/02/25 11:19:43;;;;;;;10.68;3.10;;;7.10;99.90;;;;;;6180201;23;20004;-87
2022/02/25 11:22:09;;;;;;;8.43;2.38;;;7.00;99.90;;;;;;6202659;23;20046;-87
2022/02/25 11:24:37;;;;;;;7.55;3.03;;;7.00;99.90;;;;;;6180593;23;20009;-87
2022/02/25 11:27:06;;;;;;;8.82;3.20;;;6.90;99.90;;;;;;6181234;23;20453;-89
2022/02/25 11:29:34;;;;;;;11.25;3.05;;;7.10;99.90;;;;;;6178345;23;20009;-88
2022/02/25 11:32:00;;;;;;;15.52;3.63;;;7.10;99.90;;;;;;6179065;23;20035;-87
2022/02/25 11:34:26;;;;;;;7.20;2.15;;;7.00;99.90;;;;;;6180761;23;20350;-88
2022/02/25 11:36:52;;;;;;;6.03;2.17;;;6.90;99.90;;;;;;6178575;23;20012;-85
2022/02/25 11:39:24;;;;;;;8.57;2.63;;;6.70;99.90;;;;;;6180643;23;20012;-89
2022/02/25 11:41:54;;;;;;;13.02;2.75;;;6.60;99.90;;;;;;6180186;23;20017;-90
2022/02/25 11:44:20;;;;;;;14.20;2.63;;;6.40;99.90;;;;;;6159904;23;20457;-88
2022/02/25 11:46:48;;;;;;;14.95;3.83;;;6.30;99.90;;;;;;6180241;23;20024;-89
2022/02/25 11:49:19;;;;;;;13.40;3.03;;;6.10;99.90;;;;;;6144386;23;20023;-89
2022/02/25 11:51:51;;;;;;;9.50;3.08;;;6.00;99.90;;;;;;6151369;23;20019;-88
2022/02/25 11:56:59;;;;;;;11.80;3.30;;;5.70;99.90;;;;;;6207412;23;20371;-88
2022/02/25 11:59:36;;;;;;;12.13;3.35;;;5.70;99.90;;;;;;6203315;23;20016;-87
2022/02/25 12:02:12;;;;;;;20.00;4.68;;;5.60;99.90;;;;;;6202370;23;20349;-89
2022/02/25 12:04:49;;;;;;;17.95;5.65;;;5.60;99.90;;;;;;6205146;23;20027;-88
2022/02/25 12:07:15;;;;;;;17.95;3.45;;;5.70;99.90;;;;;;6182043;23;20013;-88
2022/02/25 12:09:52;;;;;;;14.65;3.83;;;5.80;99.90;;;;;;6193031;23;20508;-88
2022/02/25 12:12:24;;;;;;;13.85;3.88;;;5.90;99.90;;;;;;6176028;23;20011;-88
2022/02/25 12:15:17;;;;;;;19.70;4.68;;;6.00;99.90;;;;;;6203355;23;20016;-88
2022/02/25 12:17:51;;;;;;;17.27;3.95;;;6.10;99.90;;;;;;6172617;23;20019;-89
2022/02/25 12:20:37;;;;;;;13.73;4.00;;;6.20;99.90;;;;;;6169169;23;20011;-88
2022/02/25 12:23:26;;;;;;;15.40;4.32;;;6.30;99.90;;;;;;6122014;23;20707;-89
2022/02/25 12:26:04;;;;;;;17.20;4.68;;;6.30;99.90;;;;;;6166669;23;20028;-88
2022/02/25 12:28:31;;;;;;;10.10;2.72;;;6.40;99.90;;;;;;6179538;23;20017;-89
2022/02/25 12:31:09;;;;;;;9.60;2.78;;;6.30;99.90;;;;;;6192045;23;20436;-89
2022/02/25 12:33:41;;;;;;;20.35;2.75;;;6.30;99.90;;;;;;6179748;23;20413;-89
2022/02/25 12:36:12;;;;;;;18.13;3.30;;;6.20;99.90;;;;;;6181206;23;20458;-87
2022/02/25 12:38:40;;;;;;;7.15;2.70;;;5.90;99.90;;;;;;6203863;23;20020;-87
2022/02/25 12:41:11;;;;;;;31.73;2.22;;;5.70;99.90;;;;;;6180407;23;20009;-87
2022/02/25 12:43:48;;;;;;;13.20;2.33;;;5.30;99.90;;;;;;6180542;23;20016;-87
2022/02/25 12:46:15;;;;;;;12.38;2.60;;;5.00;99.90;;;;;;6181267;23;20065;-88
2022/02/25 12:48:40;;;;;;;8.45;2.30;;;4.90;99.90;;;;;;6180786;23;20009;-88
2022/02/25 12:51:06;;;;;;;8.38;1.67;;;4.90;99.90;;;;;;6166386;23;20066;-88
2022/02/25 12:53:52;;;;;;;8.75;2.53;;;4.90;99.90;;;;;;6179002;23;20098;-88
2022/02/25 12:56:20;;;;;;;13.52;2.75;;;5.00;99.90;;;;;;6181876;23;20008;-88
2022/02/25 12:58:46;;;;;;;6.57;1.52;;;5.10;99.90;;;;;;6168889;23;20537;-88
2022/02/25 13:01:21;;;;;;;7.20;1.80;;;5.10;99.90;;;;;;6177151;23;20104;-88